sensor_id;sensor_type;location;lat;lon;timestamp;pressure;altitude;pressure_sealevel;temperature;humidity
70546;BME280;58098;51.680;5.134;2022-12-24T00:01:39;100755.03;;;9.26;100.00
70546;BME280;58098;51.680;5.134;2022-12-24T00:04:05;100740.69;;;9.09;100.00
70546;BME280;58098;51.680;5.134;2022-12-24T00:06:30;100769.94;;;9.24;100.00
70546;BME280;58098;51.680;5.134;2022-12-24T00:08:55;100766.06;;;9.41;100.00
70546;BME280;58098;51.680;5.134;2022-12-24T00:11:21;100764.88;;;9.34;100.00
70546;BME280;58098;51.680;5.134;2022-12-24T00:13:46;100758.13;;;9.31;100.00
70546;BME280;58098;51.680;5.134;2022-12-24T00:16:12;100758.38;;;9.39;100.00
70546;BME280;58098;51.680;5.134;2022-12-24T00:18:37;100772.06;;;9.30;100.00
70546;BME280;58098;51.680;5.134;2022-12-24T00:21:03;100764.03;;;9.22;100.00
70546;BME280;58098;51.680;5.134;2022-12-24T00:23:30;100770.16;;;9.21;100.00
70546;BME280;58098;51.680;5.134;2022-12-24T00:25:56;100788.16;;;9.24;100.00
70546;BME280;58098;51.680;5.134;2022-12-24T00:28:21;100774.75;;;9.17;100.00
70546;BME280;58098;51.680;5.134;2022-12-24T00:30:47;100787.91;;;9.16;100.00
70546;BME280;58098;51.680;5.134;2022-12-24T00:33:12;100787.69;;;9.19;100.00
70546;BME280;58098;51.680;5.134;2022-12-24T00:35:38;100773.69;;;9.09;100.00
70546;BME280;58098;51.680;5.134;2022-12-24T00:38:04;100797.47;;;9.15;100.00
70546;BME280;58098;51.680;5.134;2022-12-24T00:40:30;100791.06;;;9.08;100.00
70546;BME280;58098;51.680;5.134;2022-12-24T00:42:56;100796.38;;;9.07;100.00
70546;BME280;58098;51.680;5.134;2022-12-24T00:45:21;100794.22;;;9.01;100.00
70546;BME280;58098;51.680;5.134;2022-12-24T00:47:47;100795.53;;;8.95;100.00
70546;BME280;58098;51.680;5.134;2022-12-24T00:50:12;100799.19;;;8.93;100.00
70546;BME280;58098;51.680;5.134;2022-12-24T00:52:38;100810.59;;;9.03;100.00
70546;BME280;58098;51.680;5.134;2022-12-24T00:55:03;100802.38;;;8.96;100.00
70546;BME280;58098;51.680;5.134;2022-12-24T00:57:29;100830.78;;;8.99;100.00
70546;BME280;58098;51.680;5.134;2022-12-24T00:59:54;100822.13;;;8.99;100.00
70546;BME280;58098;51.680;5.134;2022-12-24T01:02:20;100831.41;;;9.03;100.00
70546;BME280;58098;51.680;5.134;2022-12-24T01:04:45;100809.34;;;8.96;100.00
70546;BME280;58098;51.680;5.134;2022-12-24T01:07:29;100828.88;;;9.01;100.00
70546;BME280;58098;51.680;5.134;2022-12-24T01:09:54;100821.63;;;8.94;100.00
70546;BME280;58098;51.680;5.134;2022-12-24T01:12:20;100819.00;;;8.83;100.00
70546;BME280;58098;51.680;5.134;2022-12-24T01:14:45;100827.88;;;8.91;100.00
70546;BME280;58098;51.680;5.134;2022-12-24T01:17:11;100835.44;;;8.83;100.00
70546;BME280;58098;51.680;5.134;2022-12-24T01:19:36;100830.28;;;8.71;100.00
70546;BME280;58098;51.680;5.134;2022-12-24T01:22:01;100850.41;;;8.80;100.00
70546;BME280;58098;51.680;5.134;2022-12-24T01:24:27;100849.06;;;8.74;100.00
70546;BME280;58098;51.680;5.134;2022-12-24T01:26:52;100842.78;;;8.66;100.00
70546;BME280;58098;51.680;5.134;2022-12-24T01:29:17;100834.66;;;8.57;100.00
70546;BME280;58098;51.680;5.134;2022-12-24T01:31:43;100847.03;;;8.67;100.00
70546;BME280;58098;51.680;5.134;2022-12-24T01:34:08;100846.75;;;8.58;100.00
70546;BME280;58098;51.680;5.134;2022-12-24T01:36:34;100844.47;;;8.54;100.00
70546;BME280;58098;51.680;5.134;2022-12-24T01:39:00;100850.47;;;8.54;100.00
70546;BME280;58098;51.680;5.134;2022-12-24T01:41:25;100854.97;;;8.52;100.00
70546;BME280;58098;51.680;5.134;2022-12-24T01:46:44;100863.22;;;8.46;100.00
70546;BME280;58098;51.680;5.134;2022-12-24T01:49:12;100882.97;;;8.49;100.00
70546;BME280;58098;51.680;5.134;2022-12-24T01:51:45;100874.94;;;8.52;100.00
70546;BME280;58098;51.680;5.134;2022-12-24T01:56:53;100886.81;;;8.43;100.00
70546;BME280;58098;51.680;5.134;2022-12-24T01:59:22;100893.69;;;8.44;100.00
70546;BME280;58098;51.680;5.134;2022-12-24T02:01:49;100892.63;;;8.47;100.00
70546;BME280;58098;51.680;5.134;2022-12-24T02:04:32;100890.66;;;8.50;100.00
70546;BME280;58098;51.680;5.134;2022-12-24T02:06:58;100908.22;;;8.59;100.00
70546;BME280;58098;51.680;5.134;2022-12-24T02:09:23;100908.34;;;8.58;100.00
70546;BME280;58098;51.680;5.134;2022-12-24T02:11:49;100893.78;;;8.55;100.00
70546;BME280;58098;51.680;5.134;2022-12-24T02:14:15;100901.88;;;8.63;100.00
70546;BME280;58098;51.680;5.134;2022-12-24T02:16:48;100900.31;;;8.74;100.00
70546;BME280;58098;51.680;5.134;2022-12-24T02:19:45;100905.06;;;8.80;100.00
70546;BME280;58098;51.680;5.134;2022-12-24T02:23:25;100904.31;;;8.90;100.00
70546;BME280;58098;51.680;5.134;2022-12-24T02:28:10;100904.69;;;8.97;100.00
70546;BME280;58098;51.680;5.134;2022-12-24T02:30:47;100909.69;;;9.00;100.00
70546;BME280;58098;51.680;5.134;2022-12-24T02:36:12;100914.94;;;9.11;100.00
70546;BME280;58098;51.680;5.134;2022-12-24T02:38:48;100906.28;;;9.10;100.00
70546;BME280;58098;51.680;5.134;2022-12-24T02:41:19;100915.44;;;9.16;100.00
70546;BME280;58098;51.680;5.134;2022-12-24T02:43:49;100916.50;;;9.13;100.00
70546;BME280;58098;51.680;5.134;2022-12-24T02:46:21;100904.28;;;9.03;100.00
70546;BME280;58098;51.680;5.134;2022-12-24T02:48:49;100916.84;;;9.09;100.00
70546;BME280;58098;51.680;5.134;2022-12-24T02:51:15;100934.72;;;9.13;100.00
70546;BME280;58098;51.680;5.134;2022-12-24T02:53:41;100927.97;;;9.11;100.00
70546;BME280;58098;51.680;5.134;2022-12-24T02:56:35;100929.19;;;9.18;100.00
70546;BME280;58098;51.680;5.134;2022-12-24T02:59:29;100935.59;;;9.25;100.00
70546;BME280;58098;51.680;5.134;2022-12-24T03:07:44;100942.28;;;9.29;100.00
70546;BME280;58098;51.680;5.134;2022-12-24T03:12:46;100934.72;;;9.37;100.00
70546;BME280;58098;51.680;5.134;2022-12-24T03:15:15;100923.09;;;9.30;100.00
70546;BME280;58098;51.680;5.134;2022-12-24T03:17:45;100945.94;;;9.50;100.00
70546;BME280;58098;51.680;5.134;2022-12-24T03:20:15;100934.28;;;9.43;100.00
70546;BME280;58098;51.680;5.134;2022-12-24T03:22:42;100932.06;;;9.50;100.00
70546;BME280;58098;51.680;5.134;2022-12-24T03:25:07;100948.19;;;9.55;100.00
70546;BME280;58098;51.680;5.134;2022-12-24T03:27:33;100937.19;;;9.51;100.00
70546;BME280;58098;51.680;5.134;2022-12-24T03:30:01;100943.47;;;9.60;100.00
70546;BME280;58098;51.680;5.134;2022-12-24T03:32:29;100951.06;;;9.63;100.00
70546;BME280;58098;51.680;5.134;2022-12-24T03:34:55;100942.38;;;9.51;100.00
70546;BME280;58098;51.680;5.134;2022-12-24T03:37:21;100951.28;;;9.60;100.00
70546;BME280;58098;51.680;5.134;2022-12-24T03:39:47;100956.06;;;9.66;100.00
70546;BME280;58098;51.680;5.134;2022-12-24T03:42:12;100941.59;;;9.62;100.00
70546;BME280;58098;51.680;5.134;2022-12-24T03:44:37;100943.28;;;9.74;100.00
70546;BME280;58098;51.680;5.134;2022-12-24T03:47:03;100955.97;;;9.78;100.00
70546;BME280;58098;51.680;5.134;2022-12-24T03:49:28;100955.97;;;9.78;100.00
70546;BME280;58098;51.680;5.134;2022-12-24T03:51:54;100946.72;;;9.74;100.00
70546;BME280;58098;51.680;5.134;2022-12-24T03:54:19;100946.59;;;9.76;100.00
70546;BME280;58098;51.680;5.134;2022-12-24T03:56:44;100942.00;;;9.79;100.00
70546;BME280;58098;51.680;5.134;2022-12-24T03:59:09;100951.88;;;9.87;100.00
70546;BME280;58098;51.680;5.134;2022-12-24T04:01:35;100938.00;;;9.86;100.00
70546;BME280;58098;51.680;5.134;2022-12-24T04:04:00;100952.59;;;9.89;100.00
70546;BME280;58098;51.680;5.134;2022-12-24T04:06:26;100971.31;;;9.94;100.00
70546;BME280;58098;51.680;5.134;2022-12-24T04:08:51;100952.59;;;9.89;100.00
70546;BME280;58098;51.680;5.134;2022-12-24T04:11:17;100960.56;;;9.98;100.00
70546;BME280;58098;51.680;5.134;2022-12-24T04:13:43;100961.59;;;9.96;100.00
70546;BME280;58098;51.680;5.134;2022-12-24T04:16:11;100960.28;;;9.90;100.00
70546;BME280;58098;51.680;5.134;2022-12-24T04:18:37;100962.78;;;9.92;100.00
70546;BME280;58098;51.680;5.134;2022-12-24T04:21:04;100953.44;;;9.89;100.00
70546;BME280;58098;51.680;5.134;2022-12-24T04:23:30;100973.59;;;9.98;100.00
70546;BME280;58098;51.680;5.134;2022-12-24T04:25:58;100980.91;;;9.93;100.00
70546;BME280;58098;51.680;5.134;2022-12-24T04:28:24;100961.09;;;9.80;100.00
70546;BME280;58098;51.680;5.134;2022-12-24T04:30:49;100971.03;;;9.75;100.00
70546;BME280;58098;51.680;5.134;2022-12-24T04:33:14;100984.97;;;9.74;100.00
70546;BME280;58098;51.680;5.134;2022-12-24T04:35:40;100988.22;;;9.77;100.00
70546;BME280;58098;51.680;5.134;2022-12-24T04:38:06;100979.28;;;9.69;100.00
70546;BME280;58098;51.680;5.134;2022-12-24T04:40:32;100990.09;;;9.75;100.00
70546;BME280;58098;51.680;5.134;2022-12-24T04:42:57;100982.00;;;9.67;100.00
70546;BME280;58098;51.680;5.134;2022-12-24T04:45:22;101005.06;;;9.84;100.00
70546;BME280;58098;51.680;5.134;2022-12-24T04:47:48;100982.03;;;9.78;100.00
70546;BME280;58098;51.680;5.134;2022-12-24T04:50:13;100997.72;;;9.89;100.00
70546;BME280;58098;51.680;5.134;2022-12-24T04:52:38;100996.69;;;9.92;100.00
70546;BME280;58098;51.680;5.134;2022-12-24T04:55:04;100989.41;;;9.84;100.00
70546;BME280;58098;51.680;5.134;2022-12-24T04:57:30;100985.63;;;9.88;100.00
70546;BME280;58098;51.680;5.134;2022-12-24T04:59:56;101004.88;;;9.98;100.00
70546;BME280;58098;51.680;5.134;2022-12-24T05:02:22;100978.53;;;9.90;100.00
70546;BME280;58098;51.680;5.134;2022-12-24T05:04:47;100989.06;;;9.89;100.00
70546;BME280;58098;51.680;5.134;2022-12-24T05:07:12;100999.72;;;9.86;100.00
70546;BME280;58098;51.680;5.134;2022-12-24T05:09:38;100995.03;;;9.67;100.00
70546;BME280;58098;51.680;5.134;2022-12-24T05:12:03;101001.91;;;9.68;100.00
70546;BME280;58098;51.680;5.134;2022-12-24T05:14:29;101011.03;;;9.74;100.00
70546;BME280;58098;51.680;5.134;2022-12-24T05:16:54;101014.47;;;9.74;100.00
70546;BME280;58098;51.680;5.134;2022-12-24T05:19:19;101011.16;;;9.72;100.00
70546;BME280;58098;51.680;5.134;2022-12-24T05:21:45;101013.97;;;9.69;100.00
70546;BME280;58098;51.680;5.134;2022-12-24T05:24:30;101010.44;;;9.70;100.00
70546;BME280;58098;51.680;5.134;2022-12-24T05:27:14;101014.44;;;9.63;100.00
70546;BME280;58098;51.680;5.134;2022-12-24T05:29:39;101021.28;;;9.64;100.00
70546;BME280;58098;51.680;5.134;2022-12-24T05:32:04;101006.13;;;9.58;100.00
70546;BME280;58098;51.680;5.134;2022-12-24T05:34:30;101010.16;;;9.62;100.00
70546;BME280;58098;51.680;5.134;2022-12-24T05:36:55;101002.81;;;9.56;100.00
70546;BME280;58098;51.680;5.134;2022-12-24T05:39:20;101016.91;;;9.65;100.00
70546;BME280;58098;51.680;5.134;2022-12-24T05:41:46;101010.50;;;9.58;100.00
70546;BME280;58098;51.680;5.134;2022-12-24T05:44:11;101011.53;;;9.55;100.00
70546;BME280;58098;51.680;5.134;2022-12-24T05:46:37;101022.47;;;9.60;100.00
70546;BME280;58098;51.680;5.134;2022-12-24T05:49:02;101004.56;;;9.56;100.00
70546;BME280;58098;51.680;5.134;2022-12-24T05:51:27;101018.19;;;9.59;100.00
70546;BME280;58098;51.680;5.134;2022-12-24T05:53:52;101030.66;;;9.67;100.00
70546;BME280;58098;51.680;5.134;2022-12-24T05:56:22;101031.94;;;9.61;100.00
70546;BME280;58098;51.680;5.134;2022-12-24T05:58:50;101039.03;;;9.59;100.00
70546;BME280;58098;51.680;5.134;2022-12-24T06:01:16;101028.41;;;9.62;100.00
70546;BME280;58098;51.680;5.134;2022-12-24T06:03:42;101040.25;;;9.66;100.00
70546;BME280;58098;51.680;5.134;2022-12-24T06:06:11;101046.94;;;9.70;100.00
70546;BME280;58098;51.680;5.134;2022-12-24T06:08:37;101027.19;;;9.55;100.00
70546;BME280;58098;51.680;5.134;2022-12-24T06:11:05;101036.00;;;9.65;100.00
70546;BME280;58098;51.680;5.134;2022-12-24T06:13:31;101044.19;;;9.72;100.00
70546;BME280;58098;51.680;5.134;2022-12-24T06:15:58;101052.31;;;9.80;100.00
70546;BME280;58098;51.680;5.134;2022-12-24T06:18:24;101048.69;;;9.70;100.00
70546;BME280;58098;51.680;5.134;2022-12-24T06:20:54;101051.19;;;9.71;100.00
70546;BME280;58098;51.680;5.134;2022-12-24T06:23:20;101053.22;;;9.79;100.00
70546;BME280;58098;51.680;5.134;2022-12-24T06:25:46;101054.75;;;9.70;100.00
70546;BME280;58098;51.680;5.134;2022-12-24T06:28:12;101051.50;;;9.67;100.00
70546;BME280;58098;51.680;5.134;2022-12-24T06:30:37;101064.19;;;9.71;100.00
70546;BME280;58098;51.680;5.134;2022-12-24T06:33:03;101059.88;;;9.59;100.00
70546;BME280;58098;51.680;5.134;2022-12-24T06:35:30;101075.75;;;9.56;100.00
70546;BME280;58098;51.680;5.134;2022-12-24T06:37:55;101082.81;;;9.54;100.00
70546;BME280;58098;51.680;5.134;2022-12-24T06:40:21;101068.78;;;9.44;100.00
70546;BME280;58098;51.680;5.134;2022-12-24T06:42:46;101060.56;;;9.38;100.00
70546;BME280;58098;51.680;5.134;2022-12-24T06:45:11;101073.69;;;9.36;100.00
70546;BME280;58098;51.680;5.134;2022-12-24T06:47:36;101082.22;;;9.38;100.00
70546;BME280;58098;51.680;5.134;2022-12-24T06:50:02;101057.25;;;9.23;100.00
70546;BME280;58098;51.680;5.134;2022-12-24T06:52:27;101067.88;;;9.20;100.00
70546;BME280;58098;51.680;5.134;2022-12-24T06:54:53;101073.72;;;9.11;100.00
70546;BME280;58098;51.680;5.134;2022-12-24T06:57:18;101071.66;;;9.16;100.00
70546;BME280;58098;51.680;5.134;2022-12-24T06:59:43;101089.53;;;9.20;100.00
70546;BME280;58098;51.680;5.134;2022-12-24T07:02:09;101095.59;;;9.21;100.00
70546;BME280;58098;51.680;5.134;2022-12-24T07:04:34;101092.47;;;9.28;100.00
70546;BME280;58098;51.680;5.134;2022-12-24T07:06:59;101092.47;;;9.28;100.00
70546;BME280;58098;51.680;5.134;2022-12-24T07:09:25;101090.06;;;9.25;100.00
70546;BME280;58098;51.680;5.134;2022-12-24T07:11:50;101087.56;;;9.24;100.00
70546;BME280;58098;51.680;5.134;2022-12-24T07:14:15;101096.63;;;9.18;100.00
70546;BME280;58098;51.680;5.134;2022-12-24T07:16:41;101086.22;;;9.06;100.00
70546;BME280;58098;51.680;5.134;2022-12-24T07:19:06;101097.69;;;9.03;100.00
70546;BME280;58098;51.680;5.134;2022-12-24T07:21:31;101081.97;;;8.92;100.00
70546;BME280;58098;51.680;5.134;2022-12-24T07:23:57;101093.75;;;8.98;100.00
70546;BME280;58098;51.680;5.134;2022-12-24T07:26:22;101095.72;;;8.94;100.00
70546;BME280;58098;51.680;5.134;2022-12-24T07:28:47;101109.75;;;8.92;100.00
70546;BME280;58098;51.680;5.134;2022-12-24T07:31:13;101114.97;;;8.92;100.00
70546;BME280;58098;51.680;5.134;2022-12-24T07:33:38;101127.97;;;8.92;100.00
70546;BME280;58098;51.680;5.134;2022-12-24T07:36:05;101141.41;;;8.98;100.00
70546;BME280;58098;51.680;5.134;2022-12-24T07:38:32;101137.03;;;8.86;100.00
70546;BME280;58098;51.680;5.134;2022-12-24T07:40:58;101152.03;;;8.95;100.00
70546;BME280;58098;51.680;5.134;2022-12-24T07:43:24;101146.19;;;8.92;100.00
70546;BME280;58098;51.680;5.134;2022-12-24T07:45:54;101151.28;;;8.93;100.00
70546;BME280;58098;51.680;5.134;2022-12-24T07:48:19;101158.28;;;8.93;100.00
70546;BME280;58098;51.680;5.134;2022-12-24T07:50:44;101148.47;;;8.84;100.00
70546;BME280;58098;51.680;5.134;2022-12-24T07:53:10;101172.22;;;8.92;100.00
70546;BME280;58098;51.680;5.134;2022-12-24T07:55:35;101183.34;;;8.94;100.00
70546;BME280;58098;51.680;5.134;2022-12-24T07:58:00;101166.28;;;8.90;100.00
70546;BME280;58098;51.680;5.134;2022-12-24T08:00:26;101171.91;;;8.96;100.00
70546;BME280;58098;51.680;5.134;2022-12-24T08:02:51;101193.66;;;9.08;100.00
70546;BME280;58098;51.680;5.134;2022-12-24T08:05:16;101189.31;;;9.08;100.00
70546;BME280;58098;51.680;5.134;2022-12-24T08:07:42;101187.16;;;9.15;100.00
70546;BME280;58098;51.680;5.134;2022-12-24T08:10:07;101201.19;;;9.25;100.00
70546;BME280;58098;51.680;5.134;2022-12-24T08:12:33;101208.47;;;9.32;100.00
70546;BME280;58098;51.680;5.134;2022-12-24T08:14:58;101192.97;;;9.31;100.00
70546;BME280;58098;51.680;5.134;2022-12-24T08:17:23;101187.25;;;9.26;100.00
70546;BME280;58098;51.680;5.134;2022-12-24T08:19:49;101218.69;;;9.48;100.00
70546;BME280;58098;51.680;5.134;2022-12-24T08:22:14;101194.53;;;9.46;100.00
70546;BME280;58098;51.680;5.134;2022-12-24T08:24:39;101224.94;;;9.58;100.00
70546;BME280;58098;51.680;5.134;2022-12-24T08:27:05;101225.47;;;9.63;100.00
70546;BME280;58098;51.680;5.134;2022-12-24T08:29:30;101227.63;;;9.69;100.00
70546;BME280;58098;51.680;5.134;2022-12-24T08:31:55;101228.38;;;9.71;100.00
70546;BME280;58098;51.680;5.134;2022-12-24T08:34:21;101225.75;;;9.71;100.00
70546;BME280;58098;51.680;5.134;2022-12-24T08:36:46;101215.34;;;9.71;100.00
70546;BME280;58098;51.680;5.134;2022-12-24T08:39:11;101233.56;;;9.71;100.00
70546;BME280;58098;51.680;5.134;2022-12-24T08:41:37;101237.41;;;9.78;100.00
70546;BME280;58098;51.680;5.134;2022-12-24T08:44:02;101235.97;;;9.74;100.00
70546;BME280;58098;51.680;5.134;2022-12-24T08:46:27;101229.31;;;9.70;100.00
70546;BME280;58098;51.680;5.134;2022-12-24T08:48:53;101246.81;;;9.81;100.00
70546;BME280;58098;51.680;5.134;2022-12-24T08:51:18;101239.53;;;9.73;100.00
70546;BME280;58098;51.680;5.134;2022-12-24T08:53:44;101256.19;;;9.83;100.00
70546;BME280;58098;51.680;5.134;2022-12-24T08:56:10;101268.28;;;9.84;100.00
70546;BME280;58098;51.680;5.134;2022-12-24T08:58:37;101257.53;;;9.76;100.00
70546;BME280;58098;51.680;5.134;2022-12-24T09:01:13;101248.09;;;9.75;100.00
70546;BME280;58098;51.680;5.134;2022-12-24T09:03:38;101261.19;;;9.86;100.00
70546;BME280;58098;51.680;5.134;2022-12-24T09:06:05;101252.84;;;9.81;100.00
70546;BME280;58098;51.680;5.134;2022-12-24T09:08:31;101281.41;;;9.95;100.00
70546;BME280;58098;51.680;5.134;2022-12-24T09:11:04;101266.38;;;9.99;100.00
70546;BME280;58098;51.680;5.134;2022-12-24T09:13:30;101277.69;;;10.12;100.00
70546;BME280;58098;51.680;5.134;2022-12-24T09:15:55;101269.53;;;10.17;100.00
70546;BME280;58098;51.680;5.134;2022-12-24T09:18:21;101264.06;;;10.20;100.00
70546;BME280;58098;51.680;5.134;2022-12-24T09:20:46;101287.94;;;10.39;100.00
70546;BME280;58098;51.680;5.134;2022-12-24T09:23:11;101287.94;;;10.39;100.00
70546;BME280;58098;51.680;5.134;2022-12-24T09:25:43;101276.75;;;10.37;100.00
70546;BME280;58098;51.680;5.134;2022-12-24T09:28:09;101286.78;;;10.43;100.00
70546;BME280;58098;51.680;5.134;2022-12-24T09:30:36;101310.97;;;10.45;100.00
70546;BME280;58098;51.680;5.134;2022-12-24T09:33:01;101293.44;;;10.34;100.00
70546;BME280;58098;51.680;5.134;2022-12-24T09:35:27;101308.91;;;10.37;100.00
70546;BME280;58098;51.680;5.134;2022-12-24T09:37:52;101304.13;;;10.31;100.00
70546;BME280;58098;51.680;5.134;2022-12-24T09:40:38;101324.75;;;10.34;100.00
70546;BME280;58098;51.680;5.134;2022-12-24T09:43:14;101313.22;;;10.26;100.00
70546;BME280;58098;51.680;5.134;2022-12-24T09:46:31;101321.34;;;10.34;100.00
70546;BME280;58098;51.680;5.134;2022-12-24T09:48:38;101333.09;;;10.39;100.00
70546;BME280;58098;51.680;5.134;2022-12-24T09:51:19;101325.91;;;10.43;100.00
70546;BME280;58098;51.680;5.134;2022-12-24T09:53:51;101342.91;;;10.48;100.00
70546;BME280;58098;51.680;5.134;2022-12-24T09:56:23;101337.97;;;10.56;100.00
70546;BME280;58098;51.680;5.134;2022-12-24T09:58:58;101340.34;;;10.59;100.00
70546;BME280;58098;51.680;5.134;2022-12-24T10:01:24;101343.25;;;10.68;100.00
70546;BME280;58098;51.680;5.134;2022-12-24T10:03:49;101350.72;;;10.85;100.00
70546;BME280;58098;51.680;5.134;2022-12-24T10:11:45;101342.72;;;10.99;100.00
70546;BME280;58098;51.680;5.134;2022-12-24T10:22:25;101321.97;;;10.97;100.00
70546;BME280;58098;51.680;5.134;2022-12-24T10:25:18;101338.56;;;10.96;100.00
70546;BME280;58098;51.680;5.134;2022-12-24T10:27:46;101322.88;;;10.96;100.00
70546;BME280;58098;51.680;5.134;2022-12-24T10:30:14;101324.44;;;10.99;100.00
70546;BME280;58098;51.680;5.134;2022-12-24T10:32:40;101329.78;;;10.97;100.00
70546;BME280;58098;51.680;5.134;2022-12-24T10:37:45;101345.38;;;10.86;100.00
70546;BME280;58098;51.680;5.134;2022-12-24T10:40:15;101338.59;;;10.84;100.00
70546;BME280;58098;51.680;5.134;2022-12-24T10:42:44;101341.03;;;10.98;100.00
70546;BME280;58098;51.680;5.134;2022-12-24T10:45:16;101325.53;;;11.07;100.00
70546;BME280;58098;51.680;5.134;2022-12-24T10:47:47;101337.44;;;11.11;100.00
70546;BME280;58098;51.680;5.134;2022-12-24T10:50:36;101350.94;;;11.05;100.00
70546;BME280;58098;51.680;5.134;2022-12-24T10:53:13;101345.84;;;11.04;100.00
70546;BME280;58098;51.680;5.134;2022-12-24T10:55:41;101333.63;;;11.04;100.00
70546;BME280;58098;51.680;5.134;2022-12-24T10:58:14;101340.16;;;11.10;100.00
70546;BME280;58098;51.680;5.134;2022-12-24T11:00:40;101336.72;;;11.09;100.00
70546;BME280;58098;51.680;5.134;2022-12-24T11:05:33;101357.69;;;10.97;100.00
70546;BME280;58098;51.680;5.134;2022-12-24T11:10:35;101349.00;;;10.96;100.00
70546;BME280;58098;51.680;5.134;2022-12-24T11:13:03;101347.69;;;11.14;100.00
70546;BME280;58098;51.680;5.134;2022-12-24T11:15:33;101353.34;;;11.08;100.00
70546;BME280;58098;51.680;5.134;2022-12-24T11:18:02;101349.38;;;11.03;100.00
70546;BME280;58098;51.680;5.134;2022-12-24T11:20:30;101349.50;;;11.01;100.00
70546;BME280;58098;51.680;5.134;2022-12-24T11:22:57;101353.28;;;10.97;100.00
70546;BME280;58098;51.680;5.134;2022-12-24T11:25:30;101347.78;;;10.89;100.00
70546;BME280;58098;51.680;5.134;2022-12-24T11:28:10;101354.09;;;10.98;100.00
70546;BME280;58098;51.680;5.134;2022-12-24T11:30:35;101352.97;;;11.02;100.00
70546;BME280;58098;51.680;5.134;2022-12-24T11:35:27;101375.91;;;11.09;100.00
70546;BME280;58098;51.680;5.134;2022-12-24T11:40:30;101353.13;;;11.11;100.00
70546;BME280;58098;51.680;5.134;2022-12-24T11:43:01;101389.13;;;11.19;100.00
70546;BME280;58098;51.680;5.134;2022-12-24T11:45:29;101372.97;;;11.14;100.00
70546;BME280;58098;51.680;5.134;2022-12-24T11:47:55;101372.25;;;11.12;100.00
70546;BME280;58098;51.680;5.134;2022-12-24T11:50:34;101374.91;;;11.23;100.00
70546;BME280;58098;51.680;5.134;2022-12-24T11:55:47;101374.50;;;11.16;100.00
70546;BME280;58098;51.680;5.134;2022-12-24T12:00:42;101381.56;;;11.03;100.00
70546;BME280;58098;51.680;5.134;2022-12-24T12:03:22;101371.81;;;11.05;100.00
70546;BME280;58098;51.680;5.134;2022-12-24T12:05:50;101382.78;;;11.10;100.00
70546;BME280;58098;51.680;5.134;2022-12-24T12:08:19;101365.47;;;11.09;100.00
70546;BME280;58098;51.680;5.134;2022-12-24T12:10:46;101387.56;;;11.16;100.00
70546;BME280;58098;51.680;5.134;2022-12-24T12:13:18;101381.50;;;11.16;100.00
70546;BME280;58098;51.680;5.134;2022-12-24T12:16:20;101380.88;;;11.12;100.00
70546;BME280;58098;51.680;5.134;2022-12-24T12:18:56;101400.34;;;11.08;100.00
70546;BME280;58098;51.680;5.134;2022-12-24T12:21:27;101403.34;;;11.15;100.00
70546;BME280;58098;51.680;5.134;2022-12-24T12:24:03;101402.34;;;11.28;100.00
70546;BME280;58098;51.680;5.134;2022-12-24T12:26:30;101380.50;;;11.29;100.00
70546;BME280;58098;51.680;5.134;2022-12-24T12:29:06;101381.78;;;11.24;100.00
70546;BME280;58098;51.680;5.134;2022-12-24T12:34:11;101386.22;;;11.35;100.00
70546;BME280;58098;51.680;5.134;2022-12-24T12:36:42;101391.78;;;11.30;100.00
70546;BME280;58098;51.680;5.134;2022-12-24T12:39:10;101391.28;;;11.25;100.00
70546;BME280;58098;51.680;5.134;2022-12-24T12:41:53;101414.91;;;11.23;100.00
70546;BME280;58098;51.680;5.134;2022-12-24T12:47:28;101412.97;;;11.14;100.00
70546;BME280;58098;51.680;5.134;2022-12-24T12:55:38;101403.41;;;11.02;100.00
70546;BME280;58098;51.680;5.134;2022-12-24T12:58:31;101421.03;;;11.11;100.00
70546;BME280;58098;51.680;5.134;2022-12-24T13:01:06;101423.72;;;11.10;100.00
70546;BME280;58098;51.680;5.134;2022-12-24T13:12:13;101422.59;;;11.38;100.00
70546;BME280;58098;51.680;5.134;2022-12-24T13:17:17;101432.06;;;11.15;100.00
70546;BME280;58098;51.680;5.134;2022-12-24T13:25:25;101402.78;;;10.63;100.00
70546;BME280;58098;51.680;5.134;2022-12-24T13:27:51;101426.06;;;10.66;100.00
70546;BME280;58098;51.680;5.134;2022-12-24T13:32:57;101428.50;;;10.43;100.00
70546;BME280;58098;51.680;5.134;2022-12-24T13:37:48;101449.13;;;10.46;100.00
70546;BME280;58098;51.680;5.134;2022-12-24T13:40:15;101431.19;;;10.42;100.00
70546;BME280;58098;51.680;5.134;2022-12-24T13:47:55;101433.59;;;10.45;100.00
70546;BME280;58098;51.680;5.134;2022-12-24T13:50:28;101448.59;;;10.54;100.00
70546;BME280;58098;51.680;5.134;2022-12-24T13:52:59;101435.03;;;10.49;100.00
70546;BME280;58098;51.680;5.134;2022-12-24T13:55:25;101449.56;;;10.53;100.00
70546;BME280;58098;51.680;5.134;2022-12-24T14:00:32;101452.16;;;10.53;100.00
70546;BME280;58098;51.680;5.134;2022-12-24T14:08:01;101452.81;;;10.44;100.00
70546;BME280;58098;51.680;5.134;2022-12-24T14:10:38;101463.53;;;10.52;100.00
70546;BME280;58098;51.680;5.134;2022-12-24T14:13:04;101462.69;;;10.51;100.00
70546;BME280;58098;51.680;5.134;2022-12-24T14:18:18;101470.84;;;10.47;100.00
70546;BME280;58098;51.680;5.134;2022-12-24T14:20:48;101468.97;;;10.36;100.00
70546;BME280;58098;51.680;5.134;2022-12-24T14:26:02;101477.13;;;10.32;100.00
70546;BME280;58098;51.680;5.134;2022-12-24T14:28:38;101470.34;;;10.29;100.00
70546;BME280;58098;51.680;5.134;2022-12-24T14:31:05;101467.81;;;10.28;100.00
70546;BME280;58098;51.680;5.134;2022-12-24T14:33:36;101461.16;;;10.24;100.00
70546;BME280;58098;51.680;5.134;2022-12-24T14:36:02;101474.38;;;10.21;100.00